Webcam Flughafen St.Gallen-Altenrhein

Live-Bilder und Zeitraffer LSZR / ACH.

 

Live aus Altenrhein
LIVE
LSZR 071020Z 10004KT 080V180 9999 BKN041 07/03 Q1019 NOSIG RMK E
Zeitraffer heute
2019-12-07 00:14:37
LSZR 062250Z AUTO VRB02KT 9999 BKN070 BKN090 01/01 Q1017